Daniel Field Augusta US
ICAO: KDNL
IATA: DNL
Category: Medium
Scheduled Services: No

Elevation: 423 ft
TransAlt. 18000 ft.

Airport Communications:
AUGUSTA APP/DEP:126.8
ASOS:135.275
CLNC DEL:128.1
MACON RDO:122.3
CTAF/UNICOM:123.05

KDNL Zoom In..

If Map Doesn't Load, Click Here

Runways:

(A) RW 05 length 4002 ft width 100 ft
---- / hdg 50

(B) RW 11 length 3733 ft width 100 ft
---- / hdg 108

(C) RW 23 length 4002 ft width 100 ft
---- / hdg 230

(D) RW 29 length 3733 ft width 100 ft
---- / hdg 288

Location; KDNL
Day. 21 / Time. 13.53 Zulu
* Altimeter: 30.22
* Temperature: 27° c. 80.6°f.
* Wind from: VRB° Speed 03 kn.
Dewpoint: 23° c.
Visibility: 10 Statute Miles.
Clouds: Clear (automated report).

KDNL 211353Z AUTO VRB03KT 10SM CLR 27/23 A3022 RMK AO2 SLP228 T02670228


Wind From VRB°
Speed 03 kn.

 
 
jpsmedia.com for Web Design worldairports.se 2018   terms of use